OK2VOP-6 Weather Reports


Display with metric or nautical units.
time (UTC)temp
F
wind
direction
speed
MPH
gust
MPH
rain 1hr
in
rain 24hr
in
rain mn
in
humidity
%
barometer
mb
20260905174121 72 0.0 0.0 0.00 0.00 0.00 20
20260905172116 73 0.0 0.0 0.00 0.00 0.00 18
20260905170111 74 0.0 0.0 0.00 0.00 0.00 17
20260905164106 74 0.0 0.0 0.00 0.00 0.00 15
20260905162102 75 0.0 0.0 0.00 0.00 0.00 13
20260905160057 76 0.0 0.0 0.00 0.00 0.00 11
20260905154052 76 0.0 0.0 0.00 0.00 0.00 10
20260905152047 77 0.0 0.0 0.00 0.00 0.00 8
20260905150045 79 0.0 0.0 0.00 0.00 0.00 9
20260905144037 80 0.0 0.0 0.00 0.00 0.00 5
20260905142033 80 0.0 0.0 0.00 0.00 0.00 7
20260905140028 80 0.0 0.0 0.00 0.00 0.00 8
20260905134023 79 0.0 0.0 0.00 0.00 0.00 9
20260905132018 79 0.0 0.0 0.00 0.00 0.00 8
20260905130014 78 0.0 0.0 0.00 0.00 0.00 11
20260905124009 78 0.0 0.0 0.00 0.00 0.00 11
20260905122004 78 0.0 0.0 0.00 0.00 0.00 14
20260905115959 77 0.0 0.0 0.00 0.00 0.03 16
20260905113954 77 0.0 0.0 0.00 0.00 0.03 18
20260905111949 75 0.0 0.0 0.00 0.00 0.03 22
20260905105944 73 0.0 0.0 0.00 0.00 0.03 28
20260905103939 72 0.0 0.0 0.00 0.00 0.03 31
20260905101935 71 0.0 0.0 0.00 0.00 0.03 35
20260905095930 69 0.0 0.0 0.00 0.00 0.03 36
20260905093925 69 0.0 0.0 0.00 0.00 0.03 40
20260905091920 68 0.0 0.0 0.00 0.00 0.03 44
20260905085916 67 0.0 0.0 0.00 0.00 0.03 47
20260905083911 65 0.0 0.0 0.00 0.00 0.03 52
20260905081906 64 0.0 0.0 0.00 0.00 0.03 54
20260905075901 62 0.0 0.0 0.00 0.00 0.03 54
20260905073856 62 0.0 0.0 0.01 0.00 0.03 57
20260905071852 62 0.0 0.0 0.01 0.00 0.03 56
20260905065848 62 0.0 0.0 0.01 0.00 0.03 55
20260905063842 62 0.0 0.0 0.00 0.00 0.02 54
20260905061837 62 0.0 0.0 0.00 0.00 0.02 56
20260905055832 63 0.0 0.0 0.00 0.00 0.02 60
20260905053828 63 0.0 0.0 0.01 0.00 0.02 62
20260905051823 64 0.0 0.0 0.02 0.00 0.02 62
20260905045817 64 0.0 0.0 0.02 0.00 0.02 58
20260905043813 64 0.0 0.0 0.01 0.00 0.01 55
20260905041808 67 0.0 0.0 0.00 0.00 0.00 44
20260905033758 69 0.0 0.0 0.00 0.00 0.00 37
20260905031753 69 0.0 0.0 0.00 0.00 0.00 32
20260905025748 69 0.0 0.0 0.00 0.00 0.00 32
20260905023743 70 0.0 0.0 0.00 0.00 0.00 31
20260905021739 70 0.0 0.0 0.00 0.00 0.00 30
20260905015734 70 0.0 0.0 0.00 0.00 0.00 31
20260905013729 71 0.0 0.0 0.00 0.00 0.00 31
20260905011726 73 0.0 0.0 0.00 0.00 0.00 33
20260905005719 72 0.0 0.0 0.00 0.00 0.00 31
20260905003714 73 0.0 0.0 0.00 0.00 0.00 31
20260904235705 72 0.0 0.0 0.00 0.00 0.00 32
20260904233700 72 0.0 0.0 0.00 0.00 0.00 30
20260904231655 73 0.0 0.0 0.00 0.00 0.00 30
20260904225650 74 0.0 0.0 0.00 0.00 0.00 28
20260904223645 74 0.0 0.0 0.00 0.00 0.00 27
20260904221640 75 0.0 0.0 0.00 0.00 0.00 26
20260904215635 76 0.0 0.0 0.00 0.00 0.00 24
20260904213631 76 0.0 0.0 0.00 0.00 0.00 25
20260904211626 76 0.0 0.0 0.00 0.00 0.00 24
20260904205621 75 0.0 0.0 0.00 0.00 0.00 25
20260904203618 75 0.0 0.0 0.00 0.00 0.00 26
20260904201611 76 0.0 0.0 0.00 0.00 0.00 24
20260904195606 77 0.0 0.0 0.00 0.00 0.00 24
20260904193601 77 0.0 0.0 0.00 0.00 0.00 23
20260904191559 77 0.0 0.0 0.00 0.00 0.00 24
20260904185552 78 0.0 0.0 0.00 0.00 0.00 22
20260904183547 78 0.0 0.0 0.00 0.00 0.00 22
20260904181542 80 0.0 0.0 0.00 0.00 0.00 21
20260904175537 80 0.0 0.0 0.00 0.00 0.00 19